createdAt,value
2023-02-17T00:01:21.877Z,101908.06
2023-02-17T00:06:27.222Z,101911.94
2023-02-17T00:11:32.334Z,101911.94
2023-02-17T00:16:36.134Z,101905.06
2023-02-17T00:21:39.839Z,101890.50
2023-02-17T00:26:44.911Z,101891.75
2023-02-17T00:31:48.894Z,101896.62
2023-02-17T00:36:54.878Z,101889.69
2023-02-17T00:41:59.936Z,101881.03
2023-02-17T00:47:05.601Z,101865.44
2023-02-17T00:52:09.584Z,101854.56
2023-02-17T00:57:14.801Z,101865.72
2023-02-17T01:02:19.340Z,101864.81
2023-02-17T01:07:23.148Z,101872.66
2023-02-17T01:12:28.188Z,101867.87
2023-02-17T01:17:31.902Z,101872.25
2023-02-17T01:22:35.565Z,101865.72
2023-02-17T01:27:42.738Z,101871.88
2023-02-17T01:32:46.502Z,101867.00
2023-02-17T01:37:50.426Z,101860.13
2023-02-17T01:42:55.505Z,101872.88
2023-02-17T01:48:02.388Z,101880.63
2023-02-17T01:53:07.432Z,101873.34
2023-02-17T01:58:16.417Z,101881.13
2023-02-17T02:03:20.778Z,101874.00
2023-02-17T02:08:24.622Z,101881.22
2023-02-17T02:13:32.837Z,101875.75
2023-02-17T02:18:50.417Z,101875.66
2023-02-17T02:24:13.886Z,101859.19
2023-02-17T02:29:46.600Z,101851.22
2023-02-17T02:35:00.154Z,101854.50
2023-02-17T02:40:09.003Z,101830.53
2023-02-17T02:45:13.856Z,101841.41
2023-02-17T02:50:22.479Z,101810.22
2023-02-17T02:55:38.484Z,101791.25
2023-02-17T03:00:54.128Z,101791.12
2023-02-17T03:06:08.223Z,101786.97
2023-02-17T03:11:13.796Z,101778.94
2023-02-17T03:16:17.514Z,101786.25
2023-02-17T03:21:23.669Z,101789.37
2023-02-17T03:26:27.421Z,101785.78
2023-02-17T03:31:31.463Z,101777.34
2023-02-17T03:36:36.534Z,101785.09
2023-02-17T03:41:40.294Z,101767.06
2023-02-17T03:46:43.984Z,101768.78
2023-02-17T03:51:49.051Z,101748.69
2023-02-17T03:56:52.829Z,101772.06
2023-02-17T04:01:56.583Z,101764.50
2023-02-17T04:07:01.694Z,101760.13
2023-02-17T04:12:06.120Z,101767.72
2023-02-17T04:17:09.837Z,101764.12
2023-02-17T04:22:14.922Z,101771.06
2023-02-17T04:27:18.668Z,101774.28
2023-02-17T04:32:24.512Z,101770.19
2023-02-17T04:37:29.622Z,101771.78
2023-02-17T04:42:33.347Z,101775.16
2023-02-17T04:47:37.098Z,101791.44
2023-02-17T04:52:42.276Z,101807.75
2023-02-17T04:57:45.971Z,101793.03
2023-02-17T05:02:49.797Z,101786.37
2023-02-17T05:07:54.905Z,101776.19
2023-02-17T05:12:58.956Z,101793.09
2023-02-17T05:18:02.792Z,101773.31
2023-02-17T05:23:07.977Z,101770.91
2023-02-17T05:28:11.767Z,101768.25
2023-02-17T05:33:15.504Z,101781.69
2023-02-17T05:38:21.010Z,101800.34
2023-02-17T05:43:24.810Z,101791.78
2023-02-17T05:48:28.549Z,101794.50
2023-02-17T05:53:33.686Z,101781.94
2023-02-17T05:58:37.734Z,101785.34
2023-02-17T06:03:41.484Z,101800.41
2023-02-17T06:08:46.643Z,101781.34
2023-02-17T06:13:50.437Z,101769.13
2023-02-17T06:18:54.205Z,101765.97
2023-02-17T06:23:59.263Z,101765.31
2023-02-17T06:29:02.981Z,101766.44
2023-02-17T06:34:06.853Z,101763.25
2023-02-17T06:39:12.040Z,101757.88
2023-02-17T06:44:15.838Z,101776.06
2023-02-17T06:49:19.897Z,101749.41
2023-02-17T06:54:25.016Z,101751.38
2023-02-17T06:59:29.260Z,101759.84
2023-02-17T07:04:33.659Z,101754.06
2023-02-17T07:09:39.556Z,101757.03
2023-02-17T07:14:43.293Z,101762.19
2023-02-17T07:19:47.089Z,101747.78
2023-02-17T07:24:52.241Z,101751.44
2023-02-17T07:29:56.467Z,101745.19
2023-02-17T07:35:00.247Z,101758.28
2023-02-17T07:40:06.394Z,101759.56
2023-02-17T07:45:10.497Z,101744.22
2023-02-17T07:50:14.283Z,101739.16
2023-02-17T07:55:19.738Z,101755.63
2023-02-17T08:00:23.752Z,101772.13
2023-02-17T08:05:27.602Z,101744.78
2023-02-17T08:10:50.391Z,101748.37
2023-02-17T08:15:54.227Z,101753.44
2023-02-17T08:20:57.986Z,101757.78
2023-02-17T08:26:03.095Z,101743.19
2023-02-17T08:31:06.975Z,101765.03
2023-02-17T08:36:11.969Z,101772.59
2023-02-17T08:41:20.070Z,101772.47
2023-02-17T08:46:24.570Z,101790.78
2023-02-17T08:51:28.450Z,101798.09
2023-02-17T08:56:34.827Z,101787.38
2023-02-17T09:01:40.012Z,101781.00
2023-02-17T09:06:45.762Z,101782.59
2023-02-17T09:11:51.146Z,101803.72
2023-02-17T09:16:56.369Z,101812.09
2023-02-17T09:22:00.220Z,101824.41
2023-02-17T09:27:07.560Z,101809.06
2023-02-17T09:32:11.629Z,101798.19
2023-02-17T09:37:15.459Z,101806.91
2023-02-17T09:42:22.814Z,101833.59
2023-02-17T09:47:32.979Z,101825.75
2023-02-17T09:52:44.606Z,101832.09
2023-02-17T09:57:55.658Z,101814.94
2023-02-17T10:03:05.965Z,101815.75
2023-02-17T10:08:15.877Z,101818.00
2023-02-17T10:13:23.899Z,101828.06
2023-02-17T10:18:34.341Z,101818.31
2023-02-17T10:23:38.482Z,101821.53
2023-02-17T10:28:52.097Z,101842.06
2023-02-17T10:34:02.337Z,101839.84
2023-02-17T10:39:15.375Z,101836.00
2023-02-17T10:44:23.829Z,101849.38
2023-02-17T10:49:31.396Z,101832.78
2023-02-17T10:54:39.491Z,101854.91
2023-02-17T10:59:46.565Z,101862.41
2023-02-17T11:04:54.912Z,101879.47
2023-02-17T11:10:01.219Z,101870.97
2023-02-17T11:15:15.641Z,101858.28
2023-02-17T11:20:35.519Z,101859.44
2023-02-17T11:25:39.432Z,101833.47
2023-02-17T11:30:51.732Z,101844.34
2023-02-17T11:35:56.644Z,101828.38
2023-02-17T11:41:02.206Z,101818.84
2023-02-17T11:46:32.071Z,101841.03
2023-02-17T11:51:47.917Z,101828.56
2023-02-17T11:57:08.232Z,101826.28
2023-02-17T12:02:33.016Z,101847.63
2023-02-17T12:07:47.956Z,101834.72
2023-02-17T12:13:15.187Z,101836.78
2023-02-17T12:18:34.597Z,101856.34
2023-02-17T12:23:58.341Z,101843.81
2023-02-17T12:29:13.563Z,101850.00
2023-02-17T12:34:29.310Z,101839.53
2023-02-17T12:39:39.493Z,101857.25
2023-02-17T12:44:47.081Z,101879.12
2023-02-17T12:50:01.154Z,101871.41
2023-02-17T12:55:14.735Z,101880.84
2023-02-17T13:00:22.208Z,101870.09
2023-02-17T13:05:33.409Z,101902.62
2023-02-17T13:10:39.878Z,101890.22
2023-02-17T13:15:46.004Z,101894.25
2023-02-17T13:21:00.839Z,101897.78
2023-02-17T13:26:17.910Z,101901.31
2023-02-17T13:31:23.940Z,101921.22
2023-02-17T13:36:38.139Z,101914.44
2023-02-17T13:41:47.944Z,101915.72
2023-02-17T13:46:52.373Z,101939.03
2023-02-17T13:52:08.743Z,101940.28
2023-02-17T13:57:24.474Z,101936.91
2023-02-17T14:02:36.066Z,101939.28
2023-02-17T14:07:41.610Z,101937.34
2023-02-17T14:12:45.610Z,101959.06
2023-02-17T14:17:49.862Z,101958.84
2023-02-17T14:23:04.831Z,101973.69
2023-02-17T14:28:19.765Z,101939.03
2023-02-17T14:33:26.013Z,101924.16
2023-02-17T14:38:35.074Z,101929.69
2023-02-17T14:43:38.847Z,101916.44
2023-02-17T14:48:44.649Z,101926.91
2023-02-17T14:53:50.860Z,101940.50
2023-02-17T14:58:55.087Z,101940.50
2023-02-17T15:03:59.095Z,101938.91
2023-02-17T15:09:04.163Z,101949.44
2023-02-17T15:14:08.114Z,101941.41
2023-02-17T15:19:12.109Z,101950.16
2023-02-17T15:24:19.877Z,101956.00
2023-02-17T15:29:25.116Z,101963.66
2023-02-17T15:34:32.173Z,101988.56
2023-02-17T15:39:37.320Z,101992.59
2023-02-17T15:44:44.222Z,101967.69
2023-02-17T15:49:48.109Z,101982.97
2023-02-17T15:54:53.869Z,101992.28
2023-02-17T15:59:57.774Z,101989.50
2023-02-17T16:05:01.532Z,101995.75
2023-02-17T16:10:08.153Z,101994.50
2023-02-17T16:15:15.755Z,102000.56
2023-02-17T16:20:22.202Z,102022.41
2023-02-17T16:25:28.680Z,102017.66
2023-02-17T16:30:35.190Z,102031.22
2023-02-17T16:35:40.368Z,102031.94
2023-02-17T16:40:49.011Z,102032.78
2023-02-17T16:45:56.019Z,102049.63
2023-02-17T16:51:00.048Z,102039.87
2023-02-17T16:56:14.972Z,102056.84
2023-02-17T17:01:18.746Z,102061.44
2023-02-17T17:06:25.228Z,102072.22
2023-02-17T17:11:30.339Z,102076.69
2023-02-17T17:16:34.813Z,102083.47
2023-02-17T17:21:38.594Z,102084.47
2023-02-17T17:26:45.815Z,102092.84
2023-02-17T17:31:49.932Z,102103.91
2023-02-17T17:36:53.800Z,102111.41
2023-02-17T17:41:58.867Z,102112.94
2023-02-17T17:47:02.811Z,102100.87
2023-02-17T17:52:06.577Z,102121.41
2023-02-17T17:57:11.668Z,102117.94
2023-02-17T18:02:15.448Z,102119.53
2023-02-17T18:07:19.288Z,102126.91
2023-02-17T18:12:24.411Z,102123.72
2023-02-17T18:17:28.198Z,102144.31
2023-02-17T18:22:31.904Z,102136.97
2023-02-17T18:27:41.825Z,102153.22
2023-02-17T18:32:46.064Z,102157.03
2023-02-17T18:37:49.828Z,102158.63
2023-02-17T18:42:54.974Z,102148.97
2023-02-17T18:47:58.828Z,102167.09
2023-02-17T18:53:04.930Z,102158.44
2023-02-17T18:58:12.326Z,102166.19
2023-02-17T19:03:16.230Z,102196.09
2023-02-17T19:08:20.008Z,102205.31
2023-02-17T19:13:25.063Z,102170.91
2023-02-17T19:18:28.769Z,102184.94
2023-02-17T19:23:32.594Z,102205.84
2023-02-17T19:28:38.518Z,102197.78
2023-02-17T19:33:42.972Z,102189.72
2023-02-17T19:38:46.967Z,102196.78
2023-02-17T19:43:52.195Z,102199.84
2023-02-17T19:48:56.040Z,102199.78
2023-02-17T19:54:00.622Z,102204.84
2023-02-17T19:59:05.725Z,102213.78
2023-02-17T20:04:09.466Z,102210.41
2023-02-17T20:09:17.981Z,102225.72
2023-02-17T20:14:23.237Z,102230.91
2023-02-17T20:19:27.021Z,102228.19
2023-02-17T20:24:30.722Z,102247.81
2023-02-17T20:29:36.436Z,102233.37
2023-02-17T20:34:40.870Z,102232.47
2023-02-17T20:39:44.550Z,102226.59
2023-02-17T20:44:51.008Z,102233.37
2023-02-17T20:49:54.764Z,102236.25
2023-02-17T20:54:58.467Z,102245.72
2023-02-17T21:00:04.776Z,102232.09
2023-02-17T21:05:09.270Z,102241.84
2023-02-17T21:10:16.986Z,102243.31
2023-02-17T21:15:22.674Z,102237.56
2023-02-17T21:20:26.364Z,102238.34
2023-02-17T21:25:30.175Z,102244.53
2023-02-17T21:30:35.207Z,102249.22
2023-02-17T21:35:41.105Z,102245.66
2023-02-17T21:40:44.868Z,102253.59
2023-02-17T21:45:50.000Z,102249.00
2023-02-17T21:50:53.968Z,102247.22
2023-02-17T21:55:57.649Z,102248.53
2023-02-17T22:01:02.791Z,102253.72
2023-02-17T22:06:14.211Z,102244.84
2023-02-17T22:11:19.414Z,102240.34
2023-02-17T22:16:24.897Z,102231.13
2023-02-17T22:21:29.127Z,102231.19
2023-02-17T22:26:33.173Z,102233.72
2023-02-17T22:31:40.520Z,102238.88
2023-02-17T22:36:44.383Z,102241.34
2023-02-17T22:41:48.163Z,102231.00
2023-02-17T22:46:53.210Z,102237.19
2023-02-17T22:51:57.030Z,102239.97
2023-02-17T22:57:00.847Z,102238.06
2023-02-17T23:02:06.162Z,102232.91
2023-02-17T23:07:09.993Z,102227.41
2023-02-17T23:12:13.720Z,102230.50
2023-02-17T23:17:18.861Z,102219.97
2023-02-17T23:22:22.517Z,102236.19
2023-02-17T23:27:26.241Z,102216.25
2023-02-17T23:32:31.332Z,102223.44
2023-02-17T23:37:35.052Z,102217.06
2023-02-17T23:42:39.158Z,102208.72
2023-02-17T23:47:44.188Z,102203.44
2023-02-17T23:52:47.895Z,102187.13
2023-02-17T23:57:51.628Z,102175.09
